sensor_id;sensor_type;location;lat;lon;timestamp;temperature;humidity
59973;DHT22;55298;-36.624;-64.282;2023-04-12T00:01:59;20.20;75.30
59973;DHT22;55298;-36.624;-64.282;2023-04-12T00:04:26;20.10;75.10
59973;DHT22;55298;-36.624;-64.282;2023-04-12T00:06:56;20.10;74.70
59973;DHT22;55298;-36.624;-64.282;2023-04-12T00:09:27;20.10;74.60
59973;DHT22;55298;-36.624;-64.282;2023-04-12T00:11:59;20.00;74.50
59973;DHT22;55298;-36.624;-64.282;2023-04-12T00:14:28;20.00;74.20
59973;DHT22;55298;-36.624;-64.282;2023-04-12T00:16:55;19.90;74.40
59973;DHT22;55298;-36.624;-64.282;2023-04-12T00:19:23;19.80;74.30
59973;DHT22;55298;-36.624;-64.282;2023-04-12T00:21:52;19.80;74.20
59973;DHT22;55298;-36.624;-64.282;2023-04-12T00:24:22;19.70;72.40
59973;DHT22;55298;-36.624;-64.282;2023-04-12T00:26:50;19.70;72.80
59973;DHT22;55298;-36.624;-64.282;2023-04-12T00:29:19;19.60;72.80
59973;DHT22;55298;-36.624;-64.282;2023-04-12T00:31:48;19.40;73.50
59973;DHT22;55298;-36.624;-64.282;2023-04-12T00:34:19;19.40;74.10
59973;DHT22;55298;-36.624;-64.282;2023-04-12T00:36:47;19.30;74.70
59973;DHT22;55298;-36.624;-64.282;2023-04-12T00:39:15;19.20;75.80
59973;DHT22;55298;-36.624;-64.282;2023-04-12T00:41:44;19.00;75.90
59973;DHT22;55298;-36.624;-64.282;2023-04-12T00:44:13;19.00;76.60
59973;DHT22;55298;-36.624;-64.282;2023-04-12T00:46:45;18.90;76.90
59973;DHT22;55298;-36.624;-64.282;2023-04-12T00:49:15;18.80;76.90
59973;DHT22;55298;-36.624;-64.282;2023-04-12T00:51:42;18.70;77.50
59973;DHT22;55298;-36.624;-64.282;2023-04-12T00:54:12;18.70;78.20
59973;DHT22;55298;-36.624;-64.282;2023-04-12T00:56:40;18.60;78.60
59973;DHT22;55298;-36.624;-64.282;2023-04-12T00:59:10;18.60;78.70
59973;DHT22;55298;-36.624;-64.282;2023-04-12T01:01:38;18.40;79.20
59973;DHT22;55298;-36.624;-64.282;2023-04-12T01:04:07;18.40;79.60
59973;DHT22;55298;-36.624;-64.282;2023-04-12T01:06:58;18.30;80.20
59973;DHT22;55298;-36.624;-64.282;2023-04-12T01:09:49;18.20;80.40
59973;DHT22;55298;-36.624;-64.282;2023-04-12T01:12:42;18.20;81.10
59973;DHT22;55298;-36.624;-64.282;2023-04-12T01:15:14;18.10;81.20
59973;DHT22;55298;-36.624;-64.282;2023-04-12T01:17:55;18.10;82.20
59973;DHT22;55298;-36.624;-64.282;2023-04-12T01:20:30;18.10;82.30
59973;DHT22;55298;-36.624;-64.282;2023-04-12T01:23:16;17.90;82.90
59973;DHT22;55298;-36.624;-64.282;2023-04-12T01:26:13;17.90;83.10
59973;DHT22;55298;-36.624;-64.282;2023-04-12T01:28:55;17.80;83.90
59973;DHT22;55298;-36.624;-64.282;2023-04-12T01:32:00;17.80;84.20
59973;DHT22;55298;-36.624;-64.282;2023-04-12T01:34:32;17.70;84.80
59973;DHT22;55298;-36.624;-64.282;2023-04-12T01:37:04;17.60;84.90
59973;DHT22;55298;-36.624;-64.282;2023-04-12T01:39:42;17.60;85.30
59973;DHT22;55298;-36.624;-64.282;2023-04-12T01:42:32;17.50;85.70
59973;DHT22;55298;-36.624;-64.282;2023-04-12T01:45:04;17.50;86.00
59973;DHT22;55298;-36.624;-64.282;2023-04-12T01:47:42;17.40;86.30
59973;DHT22;55298;-36.624;-64.282;2023-04-12T01:50:20;17.30;86.50
59973;DHT22;55298;-36.624;-64.282;2023-04-12T01:53:12;17.20;86.90
59973;DHT22;55298;-36.624;-64.282;2023-04-12T01:55:43;17.20;87.20
59973;DHT22;55298;-36.624;-64.282;2023-04-12T01:58:16;17.10;87.60
59973;DHT22;55298;-36.624;-64.282;2023-04-12T02:00:47;17.10;88.00
59973;DHT22;55298;-36.624;-64.282;2023-04-12T02:03:15;17.10;88.40
59973;DHT22;55298;-36.624;-64.282;2023-04-12T02:05:44;17.00;88.70
59973;DHT22;55298;-36.624;-64.282;2023-04-12T02:08:12;17.00;89.00
59973;DHT22;55298;-36.624;-64.282;2023-04-12T02:10:40;17.30;90.00
59973;DHT22;55298;-36.624;-64.282;2023-04-12T02:13:08;16.80;90.10
59973;DHT22;55298;-36.624;-64.282;2023-04-12T02:15:36;16.80;90.30
59973;DHT22;55298;-36.624;-64.282;2023-04-12T02:18:06;16.70;90.30
59973;DHT22;55298;-36.624;-64.282;2023-04-12T02:20:34;16.60;90.50
59973;DHT22;55298;-36.624;-64.282;2023-04-12T02:23:01;16.60;90.60
59973;DHT22;55298;-36.624;-64.282;2023-04-12T02:25:29;16.60;90.80
59973;DHT22;55298;-36.624;-64.282;2023-04-12T02:27:59;16.50;91.00
59973;DHT22;55298;-36.624;-64.282;2023-04-12T02:30:35;18.20;91.90
59973;DHT22;55298;-36.624;-64.282;2023-04-12T02:33:07;16.50;91.50
59973;DHT22;55298;-36.624;-64.282;2023-04-12T02:35:36;16.40;91.90
59973;DHT22;55298;-36.624;-64.282;2023-04-12T02:38:05;16.20;91.90
59973;DHT22;55298;-36.624;-64.282;2023-04-12T02:40:39;16.20;92.60
59973;DHT22;55298;-36.624;-64.282;2023-04-12T02:43:08;16.10;92.20
59973;DHT22;55298;-36.624;-64.282;2023-04-12T02:45:36;16.10;92.40
59973;DHT22;55298;-36.624;-64.282;2023-04-12T02:48:06;16.20;92.70
59973;DHT22;55298;-36.624;-64.282;2023-04-12T02:50:34;16.00;92.80
59973;DHT22;55298;-36.624;-64.282;2023-04-12T02:53:02;15.80;92.90
59973;DHT22;55298;-36.624;-64.282;2023-04-12T02:55:31;15.80;92.80
59973;DHT22;55298;-36.624;-64.282;2023-04-12T02:57:59;15.70;93.10
59973;DHT22;55298;-36.624;-64.282;2023-04-12T03:00:27;15.60;93.30
59973;DHT22;55298;-36.624;-64.282;2023-04-12T03:02:54;15.60;93.40
59973;DHT22;55298;-36.624;-64.282;2023-04-12T03:05:24;15.60;93.70
59973;DHT22;55298;-36.624;-64.282;2023-04-12T03:07:53;15.50;94.10
59973;DHT22;55298;-36.624;-64.282;2023-04-12T03:10:21;15.50;94.10
59973;DHT22;55298;-36.624;-64.282;2023-04-12T03:12:49;15.30;94.30
59973;DHT22;55298;-36.624;-64.282;2023-04-12T03:15:17;15.30;94.00
59973;DHT22;55298;-36.624;-64.282;2023-04-12T03:17:45;15.30;94.30
59973;DHT22;55298;-36.624;-64.282;2023-04-12T03:20:13;15.20;94.40
59973;DHT22;55298;-36.624;-64.282;2023-04-12T03:22:44;15.20;94.60
59973;DHT22;55298;-36.624;-64.282;2023-04-12T03:25:12;15.20;94.60
59973;DHT22;55298;-36.624;-64.282;2023-04-12T03:27:39;17.60;95.30
59973;DHT22;55298;-36.624;-64.282;2023-04-12T03:30:08;15.00;94.40
59973;DHT22;55298;-36.624;-64.282;2023-04-12T03:32:39;15.00;94.50
59973;DHT22;55298;-36.624;-64.282;2023-04-12T03:35:08;14.90;94.50
59973;DHT22;55298;-36.624;-64.282;2023-04-12T03:37:40;14.90;94.50
59973;DHT22;55298;-36.624;-64.282;2023-04-12T03:40:08;14.80;94.40
59973;DHT22;55298;-36.624;-64.282;2023-04-12T03:42:36;14.80;94.30
59973;DHT22;55298;-36.624;-64.282;2023-04-12T03:45:04;14.80;94.50
59973;DHT22;55298;-36.624;-64.282;2023-04-12T03:47:33;14.80;94.50
59973;DHT22;55298;-36.624;-64.282;2023-04-12T03:50:05;14.70;94.60
59973;DHT22;55298;-36.624;-64.282;2023-04-12T03:52:33;14.60;94.70
59973;DHT22;55298;-36.624;-64.282;2023-04-12T03:55:01;14.60;94.80
59973;DHT22;55298;-36.624;-64.282;2023-04-12T03:57:31;14.60;94.80
59973;DHT22;55298;-36.624;-64.282;2023-04-12T03:59:59;14.90;95.00
59973;DHT22;55298;-36.624;-64.282;2023-04-12T04:02:28;14.60;95.10
59973;DHT22;55298;-36.624;-64.282;2023-04-12T04:04:57;14.50;95.30
59973;DHT22;55298;-36.624;-64.282;2023-04-12T04:07:26;15.50;95.60
59973;DHT22;55298;-36.624;-64.282;2023-04-12T04:09:55;14.40;95.40
59973;DHT22;55298;-36.624;-64.282;2023-04-12T04:12:26;14.40;95.50
59973;DHT22;55298;-36.624;-64.282;2023-04-12T04:14:54;14.30;95.60
59973;DHT22;55298;-36.624;-64.282;2023-04-12T04:17:22;14.30;95.60
59973;DHT22;55298;-36.624;-64.282;2023-04-12T04:19:50;14.20;95.70
59973;DHT22;55298;-36.624;-64.282;2023-04-12T04:22:18;14.20;95.80
59973;DHT22;55298;-36.624;-64.282;2023-04-12T04:24:47;14.10;95.90
59973;DHT22;55298;-36.624;-64.282;2023-04-12T04:27:16;14.00;96.10
59973;DHT22;55298;-36.624;-64.282;2023-04-12T04:29:46;14.00;96.20
59973;DHT22;55298;-36.624;-64.282;2023-04-12T04:32:14;13.90;96.30
59973;DHT22;55298;-36.624;-64.282;2023-04-12T04:34:41;13.90;96.30
59973;DHT22;55298;-36.624;-64.282;2023-04-12T04:37:10;13.80;96.40
59973;DHT22;55298;-36.624;-64.282;2023-04-12T04:39:39;13.80;96.40
59973;DHT22;55298;-36.624;-64.282;2023-04-12T04:42:06;14.00;96.60
59973;DHT22;55298;-36.624;-64.282;2023-04-12T04:44:35;13.70;96.70
59973;DHT22;55298;-36.624;-64.282;2023-04-12T04:47:03;13.90;96.80
59973;DHT22;55298;-36.624;-64.282;2023-04-12T04:49:32;14.90;97.10
59973;DHT22;55298;-36.624;-64.282;2023-04-12T04:52:00;13.60;96.60
59973;DHT22;55298;-36.624;-64.282;2023-04-12T04:54:29;13.60;96.80
59973;DHT22;55298;-36.624;-64.282;2023-04-12T04:56:58;14.40;97.00
59973;DHT22;55298;-36.624;-64.282;2023-04-12T04:59:27;13.70;96.80
59973;DHT22;55298;-36.624;-64.282;2023-04-12T05:01:56;13.60;96.90
59973;DHT22;55298;-36.624;-64.282;2023-04-12T05:04:24;13.60;97.10
59973;DHT22;55298;-36.624;-64.282;2023-04-12T05:06:52;13.50;97.20
59973;DHT22;55298;-36.624;-64.282;2023-04-12T05:09:19;13.50;97.30
59973;DHT22;55298;-36.624;-64.282;2023-04-12T05:11:47;13.60;97.40
59973;DHT22;55298;-36.624;-64.282;2023-04-12T05:14:15;13.40;97.30
59973;DHT22;55298;-36.624;-64.282;2023-04-12T05:16:43;13.30;97.40
59973;DHT22;55298;-36.624;-64.282;2023-04-12T05:19:11;13.30;97.40
59973;DHT22;55298;-36.624;-64.282;2023-04-12T05:21:39;13.30;97.40
59973;DHT22;55298;-36.624;-64.282;2023-04-12T05:24:07;13.30;97.40
59973;DHT22;55298;-36.624;-64.282;2023-04-12T05:26:34;13.30;97.10
59973;DHT22;55298;-36.624;-64.282;2023-04-12T05:29:02;13.20;97.70
59973;DHT22;55298;-36.624;-64.282;2023-04-12T05:31:33;13.20;97.50
59973;DHT22;55298;-36.624;-64.282;2023-04-12T05:34:00;13.20;97.50
59973;DHT22;55298;-36.624;-64.282;2023-04-12T05:36:28;13.20;97.60
59973;DHT22;55298;-36.624;-64.282;2023-04-12T05:38:57;13.20;97.50
59973;DHT22;55298;-36.624;-64.282;2023-04-12T05:41:25;13.20;97.50
59973;DHT22;55298;-36.624;-64.282;2023-04-12T05:43:53;13.20;97.60
59973;DHT22;55298;-36.624;-64.282;2023-04-12T05:46:21;13.10;97.70
59973;DHT22;55298;-36.624;-64.282;2023-04-12T05:48:48;13.10;97.60
59973;DHT22;55298;-36.624;-64.282;2023-04-12T05:51:16;13.10;97.70
59973;DHT22;55298;-36.624;-64.282;2023-04-12T05:53:45;13.10;97.70
59973;DHT22;55298;-36.624;-64.282;2023-04-12T05:56:14;13.00;97.90
59973;DHT22;55298;-36.624;-64.282;2023-04-12T05:58:42;13.00;98.10
59973;DHT22;55298;-36.624;-64.282;2023-04-12T06:01:10;13.40;98.40
59973;DHT22;55298;-36.624;-64.282;2023-04-12T06:03:38;13.00;98.50
59973;DHT22;55298;-36.624;-64.282;2023-04-12T06:06:07;14.80;99.00
59973;DHT22;55298;-36.624;-64.282;2023-04-12T06:08:36;13.80;98.70
59973;DHT22;55298;-36.624;-64.282;2023-04-12T06:11:04;12.70;98.50
59973;DHT22;55298;-36.624;-64.282;2023-04-12T06:13:33;12.90;98.50
59973;DHT22;55298;-36.624;-64.282;2023-04-12T06:16:01;12.80;98.60
59973;DHT22;55298;-36.624;-64.282;2023-04-12T06:18:29;12.80;98.80
59973;DHT22;55298;-36.624;-64.282;2023-04-12T06:20:57;12.80;98.80
59973;DHT22;55298;-36.624;-64.282;2023-04-12T06:23:27;12.70;98.80
59973;DHT22;55298;-36.624;-64.282;2023-04-12T06:25:54;12.70;98.70
59973;DHT22;55298;-36.624;-64.282;2023-04-12T06:28:22;12.70;98.90
59973;DHT22;55298;-36.624;-64.282;2023-04-12T06:30:50;12.70;98.90
59973;DHT22;55298;-36.624;-64.282;2023-04-12T06:33:18;12.70;99.20
59973;DHT22;55298;-36.624;-64.282;2023-04-12T06:35:49;12.70;98.90
59973;DHT22;55298;-36.624;-64.282;2023-04-12T06:38:17;12.60;98.90
59973;DHT22;55298;-36.624;-64.282;2023-04-12T06:40:46;12.50;99.10
59973;DHT22;55298;-36.624;-64.282;2023-04-12T06:43:15;12.60;99.30
59973;DHT22;55298;-36.624;-64.282;2023-04-12T06:45:46;12.70;99.40
59973;DHT22;55298;-36.624;-64.282;2023-04-12T06:48:14;12.60;99.60
59973;DHT22;55298;-36.624;-64.282;2023-04-12T06:50:43;12.50;99.50
59973;DHT22;55298;-36.624;-64.282;2023-04-12T06:53:11;12.50;99.90
59973;DHT22;55298;-36.624;-64.282;2023-04-12T06:55:40;12.50;99.90
59973;DHT22;55298;-36.624;-64.282;2023-04-12T06:58:11;12.50;99.90
59973;DHT22;55298;-36.624;-64.282;2023-04-12T07:00:39;12.50;99.90
59973;DHT22;55298;-36.624;-64.282;2023-04-12T07:03:09;14.10;99.90
59973;DHT22;55298;-36.624;-64.282;2023-04-12T07:05:38;12.40;99.90
59973;DHT22;55298;-36.624;-64.282;2023-04-12T07:08:08;12.40;99.90
59973;DHT22;55298;-36.624;-64.282;2023-04-12T07:10:37;12.30;99.90
59973;DHT22;55298;-36.624;-64.282;2023-04-12T07:13:06;12.30;99.90
59973;DHT22;55298;-36.624;-64.282;2023-04-12T07:15:34;12.30;99.90
59973;DHT22;55298;-36.624;-64.282;2023-04-12T07:18:01;12.30;99.90
59973;DHT22;55298;-36.624;-64.282;2023-04-12T07:20:29;11.80;99.90
59973;DHT22;55298;-36.624;-64.282;2023-04-12T07:22:58;13.90;99.90
59973;DHT22;55298;-36.624;-64.282;2023-04-12T07:25:26;12.20;99.90
59973;DHT22;55298;-36.624;-64.282;2023-04-12T07:27:54;12.20;99.90
59973;DHT22;55298;-36.624;-64.282;2023-04-12T07:30:22;12.20;99.90
59973;DHT22;55298;-36.624;-64.282;2023-04-12T07:32:53;12.20;99.90
59973;DHT22;55298;-36.624;-64.282;2023-04-12T07:35:25;12.20;99.90
59973;DHT22;55298;-36.624;-64.282;2023-04-12T07:38:01;12.20;99.90
59973;DHT22;55298;-36.624;-64.282;2023-04-12T07:40:34;12.20;99.90
59973;DHT22;55298;-36.624;-64.282;2023-04-12T07:43:02;12.10;99.90
59973;DHT22;55298;-36.624;-64.282;2023-04-12T07:45:30;12.10;99.90
59973;DHT22;55298;-36.624;-64.282;2023-04-12T07:48:00;12.00;99.90
59973;DHT22;55298;-36.624;-64.282;2023-04-12T07:50:28;11.90;99.90
59973;DHT22;55298;-36.624;-64.282;2023-04-12T07:53:16;11.90;99.90
59973;DHT22;55298;-36.624;-64.282;2023-04-12T07:55:44;12.00;99.90
59973;DHT22;55298;-36.624;-64.282;2023-04-12T07:58:13;12.00;99.90
59973;DHT22;55298;-36.624;-64.282;2023-04-12T08:00:42;12.00;99.90
59973;DHT22;55298;-36.624;-64.282;2023-04-12T08:03:12;12.00;99.90
59973;DHT22;55298;-36.624;-64.282;2023-04-12T08:05:40;12.00;99.90
59973;DHT22;55298;-36.624;-64.282;2023-04-12T08:08:08;11.90;99.90
59973;DHT22;55298;-36.624;-64.282;2023-04-12T08:10:38;11.90;99.90
59973;DHT22;55298;-36.624;-64.282;2023-04-12T08:13:07;11.90;99.90
59973;DHT22;55298;-36.624;-64.282;2023-04-12T08:15:35;11.90;99.90
59973;DHT22;55298;-36.624;-64.282;2023-04-12T08:18:03;11.80;99.90
59973;DHT22;55298;-36.624;-64.282;2023-04-12T08:20:31;11.90;99.90
59973;DHT22;55298;-36.624;-64.282;2023-04-12T08:22:59;11.90;99.90
59973;DHT22;55298;-36.624;-64.282;2023-04-12T08:25:27;11.90;99.90
59973;DHT22;55298;-36.624;-64.282;2023-04-12T08:27:54;11.90;99.90
59973;DHT22;55298;-36.624;-64.282;2023-04-12T08:30:22;11.90;99.90
59973;DHT22;55298;-36.624;-64.282;2023-04-12T08:32:53;12.10;99.90
59973;DHT22;55298;-36.624;-64.282;2023-04-12T08:35:20;11.90;99.90
59973;DHT22;55298;-36.624;-64.282;2023-04-12T08:37:49;11.80;99.90
59973;DHT22;55298;-36.624;-64.282;2023-04-12T08:40:18;12.00;99.90
59973;DHT22;55298;-36.624;-64.282;2023-04-12T08:42:47;12.00;99.90
59973;DHT22;55298;-36.624;-64.282;2023-04-12T08:45:15;12.00;99.90
59973;DHT22;55298;-36.624;-64.282;2023-04-12T08:47:44;12.10;99.90
59973;DHT22;55298;-36.624;-64.282;2023-04-12T08:50:13;12.00;99.90
59973;DHT22;55298;-36.624;-64.282;2023-04-12T08:52:44;11.90;99.90
59973;DHT22;55298;-36.624;-64.282;2023-04-12T08:55:13;11.90;99.90
59973;DHT22;55298;-36.624;-64.282;2023-04-12T08:57:41;11.90;99.90
59973;DHT22;55298;-36.624;-64.282;2023-04-12T09:00:10;11.90;99.90
59973;DHT22;55298;-36.624;-64.282;2023-04-12T09:02:39;11.90;99.90
59973;DHT22;55298;-36.624;-64.282;2023-04-12T09:05:11;11.90;99.90
59973;DHT22;55298;-36.624;-64.282;2023-04-12T09:07:40;11.90;99.90
59973;DHT22;55298;-36.624;-64.282;2023-04-12T09:10:09;11.90;99.90
59973;DHT22;55298;-36.624;-64.282;2023-04-12T09:12:45;11.80;99.90
59973;DHT22;55298;-36.624;-64.282;2023-04-12T09:15:14;11.90;99.90
59973;DHT22;55298;-36.624;-64.282;2023-04-12T09:17:44;11.90;99.90
59973;DHT22;55298;-36.624;-64.282;2023-04-12T09:20:25;11.90;99.90
59973;DHT22;55298;-36.624;-64.282;2023-04-12T09:22:53;11.90;99.90
59973;DHT22;55298;-36.624;-64.282;2023-04-12T09:25:38;11.90;99.90
59973;DHT22;55298;-36.624;-64.282;2023-04-12T09:28:17;11.90;99.90
59973;DHT22;55298;-36.624;-64.282;2023-04-12T09:30:47;12.00;99.90
59973;DHT22;55298;-36.624;-64.282;2023-04-12T09:33:19;12.10;99.90
59973;DHT22;55298;-36.624;-64.282;2023-04-12T09:35:47;12.00;99.90
59973;DHT22;55298;-36.624;-64.282;2023-04-12T09:38:15;12.10;99.90
59973;DHT22;55298;-36.624;-64.282;2023-04-12T09:40:43;12.10;99.90
59973;DHT22;55298;-36.624;-64.282;2023-04-12T09:43:11;12.10;99.90
59973;DHT22;55298;-36.624;-64.282;2023-04-12T09:45:39;12.10;99.90
59973;DHT22;55298;-36.624;-64.282;2023-04-12T09:48:22;12.10;99.90
59973;DHT22;55298;-36.624;-64.282;2023-04-12T09:50:58;12.20;99.90
59973;DHT22;55298;-36.624;-64.282;2023-04-12T09:53:27;13.80;99.90
59973;DHT22;55298;-36.624;-64.282;2023-04-12T09:55:57;12.30;99.90
59973;DHT22;55298;-36.624;-64.282;2023-04-12T09:58:26;13.10;99.90
59973;DHT22;55298;-36.624;-64.282;2023-04-12T10:00:56;12.40;99.90
59973;DHT22;55298;-36.624;-64.282;2023-04-12T10:03:25;12.40;99.90
59973;DHT22;55298;-36.624;-64.282;2023-04-12T10:05:54;12.40;99.90
59973;DHT22;55298;-36.624;-64.282;2023-04-12T10:08:23;12.50;99.90
59973;DHT22;55298;-36.624;-64.282;2023-04-12T10:10:53;12.70;99.90
59973;DHT22;55298;-36.624;-64.282;2023-04-12T10:13:22;12.90;99.90
59973;DHT22;55298;-36.624;-64.282;2023-04-12T10:16:09;12.30;99.90
59973;DHT22;55298;-36.624;-64.282;2023-04-12T10:18:41;12.30;99.90
59973;DHT22;55298;-36.624;-64.282;2023-04-12T10:21:14;12.50;99.90
59973;DHT22;55298;-36.624;-64.282;2023-04-12T10:23:50;12.60;99.90
59973;DHT22;55298;-36.624;-64.282;2023-04-12T10:26:20;12.50;99.90
59973;DHT22;55298;-36.624;-64.282;2023-04-12T10:29:21;12.50;99.90
59973;DHT22;55298;-36.624;-64.282;2023-04-12T10:31:53;12.40;99.90
59973;DHT22;55298;-36.624;-64.282;2023-04-12T10:34:29;12.40;99.90
59973;DHT22;55298;-36.624;-64.282;2023-04-12T10:37:14;12.40;99.90
59973;DHT22;55298;-36.624;-64.282;2023-04-12T10:39:45;12.40;99.90
59973;DHT22;55298;-36.624;-64.282;2023-04-12T10:42:24;12.40;99.90
59973;DHT22;55298;-36.624;-64.282;2023-04-12T10:44:56;12.40;99.90
59973;DHT22;55298;-36.624;-64.282;2023-04-12T10:47:56;12.30;99.90
59973;DHT22;55298;-36.624;-64.282;2023-04-12T10:50:28;12.30;99.90
59973;DHT22;55298;-36.624;-64.282;2023-04-12T10:55:51;12.30;99.90
59973;DHT22;55298;-36.624;-64.282;2023-04-12T11:01:16;12.50;99.90
59973;DHT22;55298;-36.624;-64.282;2023-04-12T11:07:01;12.60;99.90
59973;DHT22;55298;-36.624;-64.282;2023-04-12T11:09:40;12.70;99.90
59973;DHT22;55298;-36.624;-64.282;2023-04-12T11:12:12;12.80;99.90
59973;DHT22;55298;-36.624;-64.282;2023-04-12T11:14:49;13.00;99.90
59973;DHT22;55298;-36.624;-64.282;2023-04-12T11:17:22;13.00;99.90
59973;DHT22;55298;-36.624;-64.282;2023-04-12T11:19:54;13.20;99.90
59973;DHT22;55298;-36.624;-64.282;2023-04-12T11:22:27;13.40;99.90
59973;DHT22;55298;-36.624;-64.282;2023-04-12T11:25:32;14.00;99.90
59973;DHT22;55298;-36.624;-64.282;2023-04-12T11:30:55;15.50;99.90
59973;DHT22;55298;-36.624;-64.282;2023-04-12T11:33:34;16.00;99.90
59973;DHT22;55298;-36.624;-64.282;2023-04-12T11:36:10;16.60;97.70
59973;DHT22;55298;-36.624;-64.282;2023-04-12T11:39:01;16.90;97.00
59973;DHT22;55298;-36.624;-64.282;2023-04-12T11:41:52;17.40;94.80
59973;DHT22;55298;-36.624;-64.282;2023-04-12T11:44:31;17.00;93.60
59973;DHT22;55298;-36.624;-64.282;2023-04-12T11:47:04;16.30;94.20
59973;DHT22;55298;-36.624;-64.282;2023-04-12T11:49:32;15.60;95.70
59973;DHT22;55298;-36.624;-64.282;2023-04-12T11:52:03;15.20;97.00
59973;DHT22;55298;-36.624;-64.282;2023-04-12T11:54:31;14.90;98.50
59973;DHT22;55298;-36.624;-64.282;2023-04-12T11:57:01;14.70;99.60
59973;DHT22;55298;-36.624;-64.282;2023-04-12T11:59:33;14.60;99.90
59973;DHT22;55298;-36.624;-64.282;2023-04-12T12:02:01;14.50;99.90
59973;DHT22;55298;-36.624;-64.282;2023-04-12T12:04:31;14.50;99.90
59973;DHT22;55298;-36.624;-64.282;2023-04-12T12:07:25;14.40;99.90
59973;DHT22;55298;-36.624;-64.282;2023-04-12T12:09:53;14.30;99.90
59973;DHT22;55298;-36.624;-64.282;2023-04-12T12:12:25;14.20;99.90
59973;DHT22;55298;-36.624;-64.282;2023-04-12T12:14:58;14.00;99.90
59973;DHT22;55298;-36.624;-64.282;2023-04-12T12:17:27;14.00;99.90
59973;DHT22;55298;-36.624;-64.282;2023-04-12T12:20:00;14.00;99.90
59973;DHT22;55298;-36.624;-64.282;2023-04-12T12:22:30;14.10;99.90
59973;DHT22;55298;-36.624;-64.282;2023-04-12T12:25:02;14.10;99.90
59973;DHT22;55298;-36.624;-64.282;2023-04-12T12:27:41;14.10;99.90
59973;DHT22;55298;-36.624;-64.282;2023-04-12T12:30:16;14.00;99.90
59973;DHT22;55298;-36.624;-64.282;2023-04-12T12:32:49;13.90;99.90
59973;DHT22;55298;-36.624;-64.282;2023-04-12T12:35:29;13.90;99.90
59973;DHT22;55298;-36.624;-64.282;2023-04-12T12:38:07;13.90;99.90
59973;DHT22;55298;-36.624;-64.282;2023-04-12T12:40:37;16.40;99.90
59973;DHT22;55298;-36.624;-64.282;2023-04-12T12:43:19;14.10;99.90
59973;DHT22;55298;-36.624;-64.282;2023-04-12T12:45:51;14.70;99.90
59973;DHT22;55298;-36.624;-64.282;2023-04-12T12:48:20;15.00;99.90
59973;DHT22;55298;-36.624;-64.282;2023-04-12T12:50:57;15.00;99.90
59973;DHT22;55298;-36.624;-64.282;2023-04-12T12:53:25;15.00;99.90
59973;DHT22;55298;-36.624;-64.282;2023-04-12T12:55:54;15.00;99.90
59973;DHT22;55298;-36.624;-64.282;2023-04-12T12:58:21;15.10;99.90
59973;DHT22;55298;-36.624;-64.282;2023-04-12T13:00:52;15.20;99.90
59973;DHT22;55298;-36.624;-64.282;2023-04-12T13:03:21;15.30;99.90
59973;DHT22;55298;-36.624;-64.282;2023-04-12T13:05:52;15.10;98.90
59973;DHT22;55298;-36.624;-64.282;2023-04-12T13:08:22;15.00;99.40
59973;DHT22;55298;-36.624;-64.282;2023-04-12T13:10:51;14.90;99.10
59973;DHT22;55298;-36.624;-64.282;2023-04-12T13:13:21;14.80;99.20
59973;DHT22;55298;-36.624;-64.282;2023-04-12T13:15:53;14.80;99.50
59973;DHT22;55298;-36.624;-64.282;2023-04-12T13:18:22;14.70;99.30
59973;DHT22;55298;-36.624;-64.282;2023-04-12T13:21:00;14.70;99.80
59973;DHT22;55298;-36.624;-64.282;2023-04-12T13:23:29;14.80;99.70
59973;DHT22;55298;-36.624;-64.282;2023-04-12T13:25:57;15.90;99.60
59973;DHT22;55298;-36.624;-64.282;2023-04-12T13:28:24;15.00;99.50
59973;DHT22;55298;-36.624;-64.282;2023-04-12T13:30:55;15.40;98.20
59973;DHT22;55298;-36.624;-64.282;2023-04-12T13:33:23;15.70;97.30
59973;DHT22;55298;-36.624;-64.282;2023-04-12T13:35:51;16.40;96.20
59973;DHT22;55298;-36.624;-64.282;2023-04-12T13:38:21;17.50;92.00
59973;DHT22;55298;-36.624;-64.282;2023-04-12T13:40:51;17.50;89.80
59973;DHT22;55298;-36.624;-64.282;2023-04-12T13:43:23;16.70;90.60
59973;DHT22;55298;-36.624;-64.282;2023-04-12T13:45:51;16.90;91.10
59973;DHT22;55298;-36.624;-64.282;2023-04-12T13:48:19;16.90;90.50
59973;DHT22;55298;-36.624;-64.282;2023-04-12T13:50:47;16.50;91.00
59973;DHT22;55298;-36.624;-64.282;2023-04-12T13:53:18;16.00;91.80
59973;DHT22;55298;-36.624;-64.282;2023-04-12T13:55:47;16.00;92.10
59973;DHT22;55298;-36.624;-64.282;2023-04-12T13:58:17;16.30;91.40
59973;DHT22;55298;-36.624;-64.282;2023-04-12T14:00:45;16.60;90.40
59973;DHT22;55298;-36.624;-64.282;2023-04-12T14:03:14;16.80;90.50
59973;DHT22;55298;-36.624;-64.282;2023-04-12T14:05:42;16.90;88.30
59973;DHT22;55298;-36.624;-64.282;2023-04-12T14:08:13;16.90;88.30
59973;DHT22;55298;-36.624;-64.282;2023-04-12T14:10:41;16.70;89.30
59973;DHT22;55298;-36.624;-64.282;2023-04-12T14:13:09;16.50;89.10
59973;DHT22;55298;-36.624;-64.282;2023-04-12T14:15:37;16.60;89.00
59973;DHT22;55298;-36.624;-64.282;2023-04-12T14:18:10;16.80;87.70
59973;DHT22;55298;-36.624;-64.282;2023-04-12T14:20:44;17.10;86.10
59973;DHT22;55298;-36.624;-64.282;2023-04-12T14:23:15;17.70;84.50
59973;DHT22;55298;-36.624;-64.282;2023-04-12T14:25:43;18.70;79.10
59973;DHT22;55298;-36.624;-64.282;2023-04-12T14:28:15;18.80;76.20
59973;DHT22;55298;-36.624;-64.282;2023-04-12T14:30:43;19.20;75.70
59973;DHT22;55298;-36.624;-64.282;2023-04-12T14:33:17;19.20;75.00
59973;DHT22;55298;-36.624;-64.282;2023-04-12T14:35:45;18.90;74.10
59973;DHT22;55298;-36.624;-64.282;2023-04-12T14:38:16;18.40;75.80
59973;DHT22;55298;-36.624;-64.282;2023-04-12T14:40:45;18.30;77.20
59973;DHT22;55298;-36.624;-64.282;2023-04-12T14:43:16;18.00;76.90
59973;DHT22;55298;-36.624;-64.282;2023-04-12T14:45:50;18.00;77.30
59973;DHT22;55298;-36.624;-64.282;2023-04-12T14:48:21;18.10;76.10
59973;DHT22;55298;-36.624;-64.282;2023-04-12T14:50:53;18.80;77.00
59973;DHT22;55298;-36.624;-64.282;2023-04-12T14:53:22;17.90;75.60
59973;DHT22;55298;-36.624;-64.282;2023-04-12T14:55:50;17.90;76.20
59973;DHT22;55298;-36.624;-64.282;2023-04-12T14:58:19;17.90;75.60
59973;DHT22;55298;-36.624;-64.282;2023-04-12T15:00:50;17.50;77.20
59973;DHT22;55298;-36.624;-64.282;2023-04-12T15:03:39;17.40;78.70
59973;DHT22;55298;-36.624;-64.282;2023-04-12T15:06:13;17.30;80.20
59973;DHT22;55298;-36.624;-64.282;2023-04-12T15:08:41;17.30;79.40
59973;DHT22;55298;-36.624;-64.282;2023-04-12T15:11:10;17.50;78.40
59973;DHT22;55298;-36.624;-64.282;2023-04-12T15:13:40;17.60;75.80
59973;DHT22;55298;-36.624;-64.282;2023-04-12T15:16:11;17.60;76.30
59973;DHT22;55298;-36.624;-64.282;2023-04-12T15:18:40;17.90;76.40
59973;DHT22;55298;-36.624;-64.282;2023-04-12T15:21:22;18.20;74.50
59973;DHT22;55298;-36.624;-64.282;2023-04-12T15:23:51;17.80;74.30